GFA17 OBBI-OKKK
Flight info
| Callsign | GFA17 |
|---|---|
| Flight time | 0h 52m |
| Altitude | 24000 |
| Route | BHR A453 DEBTI |
| Aircraft | B789/H-SDE1E2E3FGHIJ2J3J4J5M1RWXY/LB1D1 |
Departure
| Time | 2026-04-28 13:20 |
|---|---|
| Airport | Bahrain International Airport (OBBI) |
Arrival
| Time | 2026-04-28 14:12 |
|---|---|
| Airport | Kuwait International Airport (OKKK) |
| Time | Latitude | Longitude | Altitude | Speed | Heading |
|---|---|---|---|---|---|
| 2026-04-28 12:34 | 26.26850 | 50.63006 | 26 ft | 0 kts | 213° |
| 2026-04-28 13:04 | 26.26863 | 50.63015 | 32 ft | 3 kts | 213° |
| 2026-04-28 13:04 | 26.26884 | 50.63030 | 32 ft | 3 kts | 213° |
| 2026-04-28 13:04 | 26.26904 | 50.63044 | 32 ft | 3 kts | 213° |
| 2026-04-28 13:05 | 26.26920 | 50.63053 | 24 ft | 3 kts | 184° |
| 2026-04-28 13:05 | 26.26934 | 50.63050 | 24 ft | 3 kts | 140° |
| 2026-04-28 13:05 | 26.26950 | 50.63031 | 25 ft | 3 kts | 126° |
| 2026-04-28 13:05 | 26.26964 | 50.63008 | 26 ft | 3 kts | 122° |
| 2026-04-28 13:06 | 26.26970 | 50.62998 | 25 ft | 6 kts | 122° |
| 2026-04-28 13:08 | 26.26966 | 50.63004 | 26 ft | 3 kts | 122° |
| 2026-04-28 13:08 | 26.26949 | 50.63035 | 25 ft | 7 kts | 122° |
| 2026-04-28 13:09 | 26.26918 | 50.63090 | 24 ft | 10 kts | 114° |
| 2026-04-28 13:09 | 26.26933 | 50.63154 | 30 ft | 9 kts | 43° |
| 2026-04-28 13:09 | 26.26962 | 50.63197 | 30 ft | 2 kts | 84° |
| 2026-04-28 13:09 | 26.26954 | 50.63227 | 30 ft | 7 kts | 113° |
| 2026-04-28 13:10 | 26.26917 | 50.63297 | 28 ft | 14 kts | 122° |
| 2026-04-28 13:10 | 26.26853 | 50.63406 | 28 ft | 20 kts | 123° |
| 2026-04-28 13:10 | 26.26765 | 50.63555 | 29 ft | 26 kts | 123° |
| 2026-04-28 13:10 | 26.26660 | 50.63736 | 26 ft | 30 kts | 122° |
| 2026-04-28 13:11 | 26.26539 | 50.63950 | 27 ft | 35 kts | 122° |
| 2026-04-28 13:11 | 26.26399 | 50.64193 | 28 ft | 39 kts | 123° |
| 2026-04-28 13:11 | 26.26256 | 50.64440 | 28 ft | 28 kts | 123° |
| 2026-04-28 13:11 | 26.26182 | 50.64567 | 28 ft | 14 kts | 122° |
| 2026-04-28 13:12 | 26.26116 | 50.64684 | 29 ft | 21 kts | 122° |
| 2026-04-28 13:12 | 26.26055 | 50.64787 | 30 ft | 8 kts | 122° |
| 2026-04-28 13:12 | 26.26046 | 50.64802 | 30 ft | 0 kts | 122° |
| 2026-04-28 13:14 | 26.26042 | 50.64809 | 31 ft | 4 kts | 122° |
| 2026-04-28 13:14 | 26.26018 | 50.64853 | 27 ft | 10 kts | 120° |
| 2026-04-28 13:14 | 26.26008 | 50.64908 | 26 ft | 6 kts | 69° |
| 2026-04-28 13:14 | 26.26022 | 50.64929 | 31 ft | 0 kts | 49° |
| 2026-04-28 13:16 | 26.26022 | 50.64930 | 31 ft | 1 kts | 49° |
| 2026-04-28 13:16 | 26.26043 | 50.64956 | 28 ft | 8 kts | 47° |
| 2026-04-28 13:16 | 26.26099 | 50.65001 | 27 ft | 12 kts | 27° |
| 2026-04-28 13:17 | 26.26125 | 50.65006 | 25 ft | 0 kts | 340° |
| 2026-04-28 13:17 | 26.26129 | 50.65002 | 29 ft | 3 kts | 322° |
| 2026-04-28 13:17 | 26.26157 | 50.64968 | 25 ft | 6 kts | 305° |
| 2026-04-28 13:17 | 26.26159 | 50.64965 | 27 ft | 0 kts | 305° |
| 2026-04-28 13:18 | 26.26160 | 50.64963 | 27 ft | 1 kts | 305° |
| 2026-04-28 13:19 | 26.26197 | 50.64902 | 27 ft | 26 kts | 303° |
| 2026-04-28 13:19 | 26.26434 | 50.64491 | 19 ft | 102 kts | 303° |
| 2026-04-28 13:19 | 26.26950 | 50.63595 | 23 ft | 170 kts | 303° |
| 2026-04-28 13:19 | 26.27636 | 50.62373 | 559 ft | 184 kts | 301° |
| 2026-04-28 13:20 | 26.28264 | 50.61170 | 1464 ft | 182 kts | 300° |
| 2026-04-28 13:20 | 26.28855 | 50.59971 | 2353 ft | 168 kts | 302° |
| 2026-04-28 13:20 | 26.29631 | 50.59006 | 2911 ft | 174 kts | 327° |
| 2026-04-28 13:20 | 26.30835 | 50.58672 | 3347 ft | 183 kts | 353° |
| 2026-04-28 13:21 | 26.32147 | 50.58404 | 3741 ft | 206 kts | 345° |
| 2026-04-28 13:21 | 26.33687 | 50.58138 | 3969 ft | 237 kts | 348° |
| 2026-04-28 13:21 | 26.35407 | 50.57847 | 4321 ft | 257 kts | 347° |
| 2026-04-28 13:21 | 26.37172 | 50.57553 | 4954 ft | 264 kts | 347° |
| 2026-04-28 13:22 | 26.38989 | 50.57162 | 5615 ft | 268 kts | 341° |
| 2026-04-28 13:22 | 26.40829 | 50.56557 | 6097 ft | 285 kts | 339° |
| 2026-04-28 13:22 | 26.42766 | 50.55973 | 6907 ft | 291 kts | 341° |
| 2026-04-28 13:22 | 26.44745 | 50.55461 | 7793 ft | 294 kts | 342° |
| 2026-04-28 13:23 | 26.46748 | 50.54942 | 8661 ft | 297 kts | 342° |
| 2026-04-28 13:23 | 26.48765 | 50.54390 | 9513 ft | 300 kts | 341° |
| 2026-04-28 13:23 | 26.50800 | 50.53827 | 10295 ft | 304 kts | 341° |
| 2026-04-28 13:23 | 26.52907 | 50.53250 | 10777 ft | 320 kts | 341° |
| 2026-04-28 13:24 | 26.55118 | 50.52650 | 11241 ft | 335 kts | 341° |
| 2026-04-28 13:24 | 26.57433 | 50.52022 | 11688 ft | 350 kts | 342° |
| 2026-04-28 13:24 | 26.59851 | 50.51364 | 12118 ft | 365 kts | 342° |
| 2026-04-28 13:24 | 26.62364 | 50.50680 | 12629 ft | 377 kts | 342° |
| 2026-04-28 13:25 | 26.64927 | 50.49985 | 13371 ft | 381 kts | 342° |
| 2026-04-28 13:25 | 26.67515 | 50.49280 | 14083 ft | 384 kts | 342° |
| 2026-04-28 13:25 | 26.70006 | 50.48251 | 14668 ft | 381 kts | 327° |
| 2026-04-28 13:25 | 26.72170 | 50.46574 | 15374 ft | 377 kts | 314° |
| 2026-04-28 13:26 | 26.74054 | 50.44544 | 16075 ft | 378 kts | 312° |
| 2026-04-28 13:26 | 26.75978 | 50.42509 | 16597 ft | 384 kts | 313° |
| 2026-04-28 13:26 | 26.77941 | 50.40455 | 16966 ft | 387 kts | 312° |
| 2026-04-28 13:26 | 26.79896 | 50.38396 | 17788 ft | 385 kts | 312° |
| 2026-04-28 13:27 | 26.81837 | 50.36335 | 18489 ft | 385 kts | 311° |
| 2026-04-28 13:27 | 26.83790 | 50.34260 | 19055 ft | 389 kts | 311° |
| 2026-04-28 13:27 | 26.85758 | 50.32176 | 19694 ft | 390 kts | 311° |
| 2026-04-28 13:27 | 26.87718 | 50.30104 | 20537 ft | 383 kts | 310° |
| 2026-04-28 13:28 | 26.89623 | 50.28093 | 21565 ft | 368 kts | 309° |
| 2026-04-28 13:28 | 26.91462 | 50.26140 | 22417 ft | 362 kts | 308° |
| 2026-04-28 13:28 | 26.93282 | 50.24196 | 23086 ft | 362 kts | 308° |
| 2026-04-28 13:28 | 26.95091 | 50.22265 | 23509 ft | 368 kts | 308° |
| 2026-04-28 13:29 | 26.96969 | 50.20268 | 23729 ft | 375 kts | 308° |
| 2026-04-28 13:29 | 26.98870 | 50.18252 | 23778 ft | 377 kts | 308° |
| 2026-04-28 13:29 | 27.00775 | 50.16233 | 23781 ft | 376 kts | 308° |
| 2026-04-28 13:29 | 27.02668 | 50.14219 | 23774 ft | 374 kts | 308° |
| 2026-04-28 13:30 | 27.04548 | 50.12204 | 23776 ft | 372 kts | 307° |
| 2026-04-28 13:30 | 27.06230 | 50.10034 | 23780 ft | 368 kts | 302° |
| 2026-04-28 13:30 | 27.07889 | 50.07841 | 23779 ft | 369 kts | 303° |
| 2026-04-28 13:30 | 27.09570 | 50.05655 | 23794 ft | 371 kts | 303° |
| 2026-04-28 13:31 | 27.12927 | 50.01250 | 23788 ft | 371 kts | 302° |
| 2026-04-28 13:31 | 27.14596 | 49.99048 | 23786 ft | 371 kts | 303° |
| 2026-04-28 13:31 | 27.16270 | 49.96846 | 23767 ft | 370 kts | 303° |
| 2026-04-28 13:32 | 27.17940 | 49.94650 | 23772 ft | 370 kts | 303° |
| 2026-04-28 13:32 | 27.19608 | 49.92454 | 23773 ft | 370 kts | 303° |
| 2026-04-28 13:32 | 27.21276 | 49.90254 | 23770 ft | 369 kts | 303° |
| 2026-04-28 13:32 | 27.22942 | 49.88057 | 23772 ft | 369 kts | 303° |
| 2026-04-28 13:33 | 27.24608 | 49.85859 | 23762 ft | 369 kts | 303° |
| 2026-04-28 13:33 | 27.26274 | 49.83662 | 23763 ft | 369 kts | 303° |
| 2026-04-28 13:33 | 27.27937 | 49.81465 | 23766 ft | 369 kts | 303° |
| 2026-04-28 13:33 | 27.29602 | 49.79265 | 23766 ft | 369 kts | 303° |
| 2026-04-28 13:34 | 27.31262 | 49.77071 | 23763 ft | 369 kts | 303° |
| 2026-04-28 13:34 | 27.32927 | 49.74870 | 23764 ft | 369 kts | 303° |
| 2026-04-28 13:34 | 27.34588 | 49.72671 | 23770 ft | 369 kts | 302° |
| 2026-04-28 13:34 | 27.36255 | 49.70463 | 23773 ft | 370 kts | 302° |
| 2026-04-28 13:35 | 27.37924 | 49.68252 | 23766 ft | 371 kts | 302° |
| 2026-04-28 13:35 | 27.39594 | 49.66041 | 23765 ft | 371 kts | 302° |
| 2026-04-28 13:35 | 27.41268 | 49.63820 | 23775 ft | 373 kts | 303° |
| 2026-04-28 13:35 | 27.42949 | 49.61589 | 23777 ft | 373 kts | 303° |
| 2026-04-28 13:36 | 27.44626 | 49.59366 | 23765 ft | 373 kts | 303° |
| 2026-04-28 13:36 | 27.46302 | 49.57141 | 23768 ft | 372 kts | 303° |
| 2026-04-28 13:36 | 27.48001 | 49.54939 | 23763 ft | 375 kts | 306° |
| 2026-04-28 13:36 | 27.50011 | 49.53008 | 23762 ft | 382 kts | 314° |
| 2026-04-28 13:37 | 27.52097 | 49.51154 | 23760 ft | 382 kts | 313° |
| 2026-04-28 13:37 | 27.54175 | 49.49292 | 23764 ft | 382 kts | 313° |
| 2026-04-28 13:37 | 27.56255 | 49.47423 | 23773 ft | 382 kts | 313° |
| 2026-04-28 13:37 | 27.58345 | 49.45549 | 23763 ft | 385 kts | 314° |
| 2026-04-28 13:38 | 27.60442 | 49.43671 | 23766 ft | 385 kts | 314° |
| 2026-04-28 13:38 | 27.62537 | 49.41795 | 23761 ft | 384 kts | 314° |
| 2026-04-28 13:38 | 27.64622 | 49.39923 | 23760 ft | 383 kts | 314° |
| 2026-04-28 13:38 | 27.66706 | 49.38050 | 23761 ft | 382 kts | 314° |
| 2026-04-28 13:39 | 27.68784 | 49.36182 | 23757 ft | 383 kts | 314° |
| 2026-04-28 13:39 | 27.70872 | 49.34306 | 23754 ft | 383 kts | 314° |
| 2026-04-28 13:39 | 27.72959 | 49.32429 | 23755 ft | 384 kts | 314° |
| 2026-04-28 13:39 | 27.75051 | 49.30547 | 23758 ft | 385 kts | 313° |
| 2026-04-28 13:40 | 27.77140 | 49.28668 | 23751 ft | 383 kts | 313° |
| 2026-04-28 13:40 | 27.79224 | 49.26792 | 23751 ft | 383 kts | 313° |
| 2026-04-28 13:40 | 27.81304 | 49.24915 | 23753 ft | 383 kts | 313° |
| 2026-04-28 13:40 | 27.83383 | 49.23040 | 23745 ft | 383 kts | 313° |
| 2026-04-28 13:41 | 27.85464 | 49.21163 | 23748 ft | 383 kts | 313° |
| 2026-04-28 13:41 | 27.87566 | 49.19316 | 23749 ft | 386 kts | 317° |
| 2026-04-28 13:41 | 27.89909 | 49.17771 | 23749 ft | 391 kts | 322° |
| 2026-04-28 13:41 | 27.92265 | 49.16233 | 23753 ft | 390 kts | 322° |
| 2026-04-28 13:42 | 27.94565 | 49.14701 | 23750 ft | 389 kts | 322° |
| 2026-04-28 13:42 | 27.96937 | 49.13136 | 23755 ft | 389 kts | 322° |
| 2026-04-28 13:42 | 27.99241 | 49.11635 | 23595 ft | 386 kts | 322° |
| 2026-04-28 13:42 | 28.01572 | 49.10111 | 23145 ft | 386 kts | 322° |
| 2026-04-28 13:43 | 28.03874 | 49.08597 | 22877 ft | 381 kts | 322° |
| 2026-04-28 13:43 | 28.06161 | 49.07091 | 22627 ft | 379 kts | 322° |
| 2026-04-28 13:43 | 28.08428 | 49.05601 | 22456 ft | 376 kts | 322° |
| 2026-04-28 13:43 | 28.10701 | 49.04104 | 22325 ft | 378 kts | 322° |
| 2026-04-28 13:44 | 28.12976 | 49.02607 | 22174 ft | 378 kts | 322° |
| 2026-04-28 13:44 | 28.15250 | 49.01111 | 22023 ft | 377 kts | 322° |
| 2026-04-28 13:44 | 28.17517 | 48.99619 | 21876 ft | 377 kts | 322° |
| 2026-04-28 13:44 | 28.19778 | 48.98128 | 21756 ft | 375 kts | 322° |
| 2026-04-28 13:45 | 28.22025 | 48.96647 | 21747 ft | 373 kts | 322° |
| 2026-04-28 13:45 | 28.24274 | 48.95161 | 21740 ft | 375 kts | 322° |
| 2026-04-28 13:45 | 28.26529 | 48.93672 | 21742 ft | 375 kts | 322° |
| 2026-04-28 13:45 | 28.28786 | 48.92182 | 21738 ft | 376 kts | 323° |
| 2026-04-28 13:46 | 28.31050 | 48.90686 | 21742 ft | 376 kts | 323° |
| 2026-04-28 13:46 | 28.33309 | 48.89191 | 21745 ft | 376 kts | 322° |
| 2026-04-28 13:46 | 28.35574 | 48.87692 | 21741 ft | 376 kts | 322° |
| 2026-04-28 13:46 | 28.37822 | 48.86205 | 21656 ft | 370 kts | 322° |
| 2026-04-28 13:47 | 28.40024 | 48.84751 | 21603 ft | 363 kts | 322° |
| 2026-04-28 13:47 | 28.42149 | 48.83347 | 21317 ft | 344 kts | 322° |
| 2026-04-28 13:47 | 28.44251 | 48.81942 | 20685 ft | 355 kts | 322° |
| 2026-04-28 13:47 | 28.45650 | 48.81007 | 20599 ft | 352 kts | 322° |
| 2026-04-28 13:48 | 28.47760 | 48.79610 | 20388 ft | 351 kts | 323° |
| 2026-04-28 13:48 | 28.49872 | 48.78213 | 20150 ft | 351 kts | 323° |
| 2026-04-28 13:48 | 28.51977 | 48.76814 | 19892 ft | 351 kts | 322° |
| 2026-04-28 13:48 | 28.54079 | 48.75414 | 19638 ft | 351 kts | 323° |
| 2026-04-28 13:49 | 28.56186 | 48.74008 | 19384 ft | 350 kts | 322° |
| 2026-04-28 13:49 | 28.58028 | 48.72282 | 19013 ft | 341 kts | 306° |
| 2026-04-28 13:49 | 28.59494 | 48.70192 | 18769 ft | 337 kts | 301° |
| 2026-04-28 13:49 | 28.60892 | 48.68067 | 18569 ft | 335 kts | 301° |
| 2026-04-28 13:50 | 28.62273 | 48.65966 | 18587 ft | 327 kts | 301° |
| 2026-04-28 13:50 | 28.63633 | 48.63930 | 18598 ft | 319 kts | 301° |
| 2026-04-28 13:50 | 28.64965 | 48.61939 | 18587 ft | 313 kts | 300° |
| 2026-04-28 13:50 | 28.66264 | 48.59982 | 18562 ft | 307 kts | 300° |
| 2026-04-28 13:51 | 28.67538 | 48.58060 | 18543 ft | 301 kts | 300° |
| 2026-04-28 13:51 | 28.68791 | 48.56172 | 18527 ft | 297 kts | 300° |
| 2026-04-28 13:51 | 28.70026 | 48.54313 | 18499 ft | 292 kts | 300° |
| 2026-04-28 13:51 | 28.71245 | 48.52475 | 18424 ft | 290 kts | 300° |
| 2026-04-28 13:52 | 28.72456 | 48.50646 | 18311 ft | 289 kts | 300° |
| 2026-04-28 13:52 | 28.73822 | 48.48942 | 18107 ft | 301 kts | 315° |
| 2026-04-28 13:52 | 28.75634 | 48.47696 | 18030 ft | 304 kts | 323° |
| 2026-04-28 13:52 | 28.77506 | 48.46546 | 17789 ft | 308 kts | 324° |
| 2026-04-28 13:53 | 28.79410 | 48.45383 | 17210 ft | 314 kts | 324° |
| 2026-04-28 13:53 | 28.81360 | 48.44171 | 16404 ft | 324 kts | 324° |
| 2026-04-28 13:53 | 28.83348 | 48.42930 | 15775 ft | 327 kts | 325° |
| 2026-04-28 13:53 | 28.85341 | 48.41696 | 15344 ft | 324 kts | 325° |
| 2026-04-28 13:54 | 28.87301 | 48.40485 | 15066 ft | 316 kts | 325° |
| 2026-04-28 13:54 | 28.89174 | 48.39322 | 15014 ft | 304 kts | 325° |
| 2026-04-28 13:54 | 28.91004 | 48.38182 | 14848 ft | 298 kts | 325° |
| 2026-04-28 13:54 | 28.92822 | 48.37044 | 14382 ft | 301 kts | 325° |
| 2026-04-28 13:55 | 28.94675 | 48.35886 | 13815 ft | 306 kts | 326° |
| 2026-04-28 13:55 | 28.96545 | 48.34725 | 13382 ft | 305 kts | 326° |
| 2026-04-28 13:55 | 28.98388 | 48.33584 | 13094 ft | 297 kts | 326° |
| 2026-04-28 13:55 | 29.00171 | 48.32474 | 12998 ft | 287 kts | 326° |
| 2026-04-28 13:56 | 29.01924 | 48.31376 | 12693 ft | 290 kts | 326° |
| 2026-04-28 13:56 | 29.03690 | 48.30272 | 12158 ft | 284 kts | 326° |
| 2026-04-28 13:56 | 29.05375 | 48.29228 | 11639 ft | 269 kts | 326° |
| 2026-04-28 13:56 | 29.06989 | 48.28222 | 11089 ft | 260 kts | 325° |
| 2026-04-28 13:57 | 29.08563 | 48.27234 | 10572 ft | 257 kts | 325° |
| 2026-04-28 13:57 | 29.10120 | 48.26259 | 10172 ft | 256 kts | 325° |
| 2026-04-28 13:57 | 29.11688 | 48.25278 | 9958 ft | 256 kts | 325° |
| 2026-04-28 13:57 | 29.13275 | 48.24284 | 9325 ft | 267 kts | 325° |
| 2026-04-28 13:58 | 29.14948 | 48.23233 | 8588 ft | 280 kts | 326° |
| 2026-04-28 13:58 | 29.16665 | 48.22164 | 8110 ft | 281 kts | 326° |
| 2026-04-28 13:58 | 29.18353 | 48.21116 | 7881 ft | 273 kts | 326° |
| 2026-04-28 13:58 | 29.20021 | 48.20069 | 7632 ft | 275 kts | 326° |
| 2026-04-28 13:59 | 29.21706 | 48.19011 | 7373 ft | 276 kts | 327° |
| 2026-04-28 13:59 | 29.23371 | 48.17972 | 7131 ft | 266 kts | 327° |
| 2026-04-28 13:59 | 29.24915 | 48.17014 | 6867 ft | 238 kts | 326° |
| 2026-04-28 13:59 | 29.26288 | 48.16158 | 6616 ft | 213 kts | 326° |
| 2026-04-28 14:00 | 29.27559 | 48.15355 | 6366 ft | 205 kts | 325° |
| 2026-04-28 14:00 | 29.28808 | 48.14565 | 6131 ft | 206 kts | 325° |
| 2026-04-28 14:00 | 29.30073 | 48.13770 | 5917 ft | 208 kts | 325° |
| 2026-04-28 14:00 | 29.31347 | 48.12972 | 5692 ft | 209 kts | 325° |
| 2026-04-28 14:01 | 29.32618 | 48.12175 | 5480 ft | 206 kts | 325° |
| 2026-04-28 14:01 | 29.33856 | 48.11402 | 5288 ft | 203 kts | 324° |
| 2026-04-28 14:01 | 29.35115 | 48.10606 | 5118 ft | 209 kts | 325° |
| 2026-04-28 14:01 | 29.36384 | 48.09812 | 5016 ft | 204 kts | 325° |
| 2026-04-28 14:02 | 29.37599 | 48.09055 | 4811 ft | 194 kts | 324° |
| 2026-04-28 14:02 | 29.38797 | 48.08329 | 4556 ft | 197 kts | 328° |
| 2026-04-28 14:02 | 29.40073 | 48.07722 | 4330 ft | 199 kts | 331° |
| 2026-04-28 14:02 | 29.41353 | 48.07113 | 4119 ft | 199 kts | 330° |
| 2026-04-28 14:03 | 29.42632 | 48.06499 | 3907 ft | 199 kts | 330° |
| 2026-04-28 14:03 | 29.43880 | 48.05905 | 3691 ft | 194 kts | 330° |
| 2026-04-28 14:03 | 29.45146 | 48.05303 | 3536 ft | 199 kts | 330° |
| 2026-04-28 14:03 | 29.46430 | 48.04699 | 3403 ft | 200 kts | 330° |
| 2026-04-28 14:04 | 29.47721 | 48.04094 | 3289 ft | 202 kts | 331° |
| 2026-04-28 14:04 | 29.48878 | 48.03200 | 3033 ft | 199 kts | 302° |
| 2026-04-28 14:04 | 29.49164 | 48.01824 | 2914 ft | 171 kts | 257° |
| 2026-04-28 14:04 | 29.48654 | 48.00593 | 3003 ft | 174 kts | 236° |
| 2026-04-28 14:05 | 29.47951 | 47.99526 | 3001 ft | 165 kts | 233° |
| 2026-04-28 14:05 | 29.47245 | 47.98429 | 3004 ft | 173 kts | 233° |
| 2026-04-28 14:05 | 29.46538 | 47.97313 | 2980 ft | 174 kts | 234° |
| 2026-04-28 14:05 | 29.45852 | 47.96246 | 2907 ft | 162 kts | 233° |
| 2026-04-28 14:06 | 29.45161 | 47.95185 | 2767 ft | 169 kts | 234° |
| 2026-04-28 14:06 | 29.44473 | 47.94126 | 2502 ft | 162 kts | 234° |
| 2026-04-28 14:06 | 29.43816 | 47.93118 | 2407 ft | 154 kts | 233° |
| 2026-04-28 14:06 | 29.43167 | 47.92120 | 2403 ft | 158 kts | 233° |
| 2026-04-28 14:07 | 29.42522 | 47.91100 | 2320 ft | 161 kts | 234° |
| 2026-04-28 14:07 | 29.41856 | 47.90041 | 2093 ft | 162 kts | 234° |
| 2026-04-28 14:07 | 29.41186 | 47.89024 | 2011 ft | 160 kts | 234° |
| 2026-04-28 14:07 | 29.40340 | 47.88209 | 1936 ft | 164 kts | 210° |
| 2026-04-28 14:08 | 29.39170 | 47.88107 | 1978 ft | 177 kts | 184° |
| 2026-04-28 14:08 | 29.37955 | 47.88586 | 1986 ft | 186 kts | 161° |
| 2026-04-28 14:08 | 29.36843 | 47.89273 | 1990 ft | 180 kts | 159° |
| 2026-04-28 14:08 | 29.35725 | 47.89906 | 1989 ft | 178 kts | 161° |
| 2026-04-28 14:09 | 29.34606 | 47.90502 | 1986 ft | 177 kts | 162° |
| 2026-04-28 14:09 | 29.33484 | 47.91098 | 1985 ft | 178 kts | 162° |
| 2026-04-28 14:09 | 29.32354 | 47.91702 | 1870 ft | 182 kts | 162° |
| 2026-04-28 14:09 | 29.31221 | 47.92311 | 1654 ft | 179 kts | 162° |
| 2026-04-28 14:10 | 29.30101 | 47.92912 | 1422 ft | 173 kts | 162° |
| 2026-04-28 14:10 | 29.29074 | 47.93471 | 1188 ft | 153 kts | 163° |
| 2026-04-28 14:10 | 29.28131 | 47.93967 | 994 ft | 148 kts | 163° |
| 2026-04-28 14:10 | 29.27225 | 47.94444 | 822 ft | 138 kts | 158° |
| 2026-04-28 14:11 | 29.26385 | 47.94905 | 652 ft | 131 kts | 154° |
| 2026-04-28 14:11 | 29.25590 | 47.95325 | 469 ft | 123 kts | 154° |
| 2026-04-28 14:11 | 29.24802 | 47.95741 | 319 ft | 131 kts | 152° |
| 2026-04-28 14:11 | 29.23971 | 47.96191 | 212 ft | 132 kts | 152° |
| 2026-04-28 14:12 | 29.23210 | 47.96599 | 170 ft | 106 kts | 153° |
| 2026-04-28 14:12 | 29.22754 | 47.96835 | 167 ft | 50 kts | 156° |
| 2026-04-28 14:12 | 29.22444 | 47.97000 | 168 ft | 48 kts | 153° |
| 2026-04-28 14:12 | 29.22152 | 47.97162 | 170 ft | 46 kts | 156° |
| 2026-04-28 14:13 | 29.21962 | 47.97337 | 169 ft | 31 kts | 112° |
| 2026-04-28 14:13 | 29.21941 | 47.97486 | 170 ft | 10 kts | 54° |
| 2026-04-28 14:13 | 29.21964 | 47.97499 | 170 ft | 2 kts | 0° |
| 2026-04-28 14:13 | 29.21981 | 47.97497 | 170 ft | 3 kts | 351° |
| 2026-04-28 14:14 | 29.22007 | 47.97487 | 170 ft | 5 kts | 339° |
| 2026-04-28 14:14 | 29.22045 | 47.97469 | 170 ft | 7 kts | 337° |
| 2026-04-28 14:14 | 29.22096 | 47.97444 | 170 ft | 9 kts | 337° |
| 2026-04-28 14:14 | 29.22157 | 47.97413 | 171 ft | 11 kts | 335° |
| 2026-04-28 14:15 | 29.22233 | 47.97370 | 171 ft | 14 kts | 332° |
| 2026-04-28 14:15 | 29.22327 | 47.97315 | 171 ft | 17 kts | 335° |
| 2026-04-28 14:15 | 29.22442 | 47.97256 | 171 ft | 19 kts | 336° |
| 2026-04-28 14:15 | 29.22574 | 47.97187 | 172 ft | 22 kts | 334° |
| 2026-04-28 14:16 | 29.22718 | 47.97108 | 172 ft | 24 kts | 334° |
| 2026-04-28 14:16 | 29.22865 | 47.97032 | 173 ft | 23 kts | 335° |
| 2026-04-28 14:16 | 29.23013 | 47.96955 | 173 ft | 24 kts | 335° |
| 2026-04-28 14:16 | 29.23169 | 47.96872 | 172 ft | 24 kts | 334° |
| 2026-04-28 14:17 | 29.23309 | 47.96794 | 173 ft | 20 kts | 335° |
| 2026-04-28 14:17 | 29.23374 | 47.96765 | 173 ft | 4 kts | 2° |
| 2026-04-28 14:17 | 29.23390 | 47.96776 | 174 ft | 2 kts | 47° |
| 2026-04-28 14:17 | 29.23399 | 47.96792 | 174 ft | 2 kts | 56° |
| 2026-04-28 14:18 | 29.23409 | 47.96810 | 174 ft | 6 kts | 61° |
| 2026-04-28 14:18 | 29.23442 | 47.96900 | 174 ft | 16 kts | 70° |
| 2026-04-28 14:18 | 29.23489 | 47.97035 | 175 ft | 21 kts | 65° |
| 2026-04-28 14:18 | 29.23550 | 47.97181 | 175 ft | 22 kts | 64° |
| 2026-04-28 14:19 | 29.23617 | 47.97350 | 176 ft | 24 kts | 68° |
| 2026-04-28 14:19 | 29.23679 | 47.97522 | 176 ft | 24 kts | 68° |